sensor_id;sensor_type;location;lat;lon;timestamp;P1;durP1;ratioP1;P2;durP2;ratioP2
12412;SDS011;13877;18.896;-99.222;2023-04-06T00:00:34;23.83;;;8.98;;
12412;SDS011;13877;18.896;-99.222;2023-04-06T00:03:02;15.18;;;8.32;;
12412;SDS011;13877;18.896;-99.222;2023-04-06T00:05:29;23.55;;;9.00;;
12412;SDS011;13877;18.896;-99.222;2023-04-06T00:07:59;13.57;;;8.55;;
12412;SDS011;13877;18.896;-99.222;2023-04-06T00:10:26;18.08;;;9.07;;
12412;SDS011;13877;18.896;-99.222;2023-04-06T00:12:55;19.38;;;9.60;;
12412;SDS011;13877;18.896;-99.222;2023-04-06T00:15:22;17.45;;;8.70;;
12412;SDS011;13877;18.896;-99.222;2023-04-06T00:17:51;17.45;;;8.43;;
12412;SDS011;13877;18.896;-99.222;2023-04-06T00:20:19;15.63;;;8.85;;
12412;SDS011;13877;18.896;-99.222;2023-04-06T00:22:46;20.65;;;9.43;;
12412;SDS011;13877;18.896;-99.222;2023-04-06T00:25:13;20.05;;;10.05;;
12412;SDS011;13877;18.896;-99.222;2023-04-06T00:27:41;15.73;;;8.70;;
12412;SDS011;13877;18.896;-99.222;2023-04-06T00:30:08;14.73;;;9.02;;
12412;SDS011;13877;18.896;-99.222;2023-04-06T00:32:36;13.20;;;9.13;;
12412;SDS011;13877;18.896;-99.222;2023-04-06T00:35:03;19.20;;;9.45;;
12412;SDS011;13877;18.896;-99.222;2023-04-06T00:37:31;17.80;;;9.27;;
12412;SDS011;13877;18.896;-99.222;2023-04-06T00:39:58;17.38;;;9.80;;
12412;SDS011;13877;18.896;-99.222;2023-04-06T00:42:26;17.70;;;9.95;;
12412;SDS011;13877;18.896;-99.222;2023-04-06T00:44:53;17.73;;;9.30;;
12412;SDS011;13877;18.896;-99.222;2023-04-06T00:47:22;20.50;;;9.73;;
12412;SDS011;13877;18.896;-99.222;2023-04-06T00:49:51;20.42;;;9.45;;
12412;SDS011;13877;18.896;-99.222;2023-04-06T00:52:19;23.92;;;9.50;;
12412;SDS011;13877;18.896;-99.222;2023-04-06T00:54:48;21.50;;;9.73;;
12412;SDS011;13877;18.896;-99.222;2023-04-06T00:57:18;19.20;;;10.20;;
12412;SDS011;13877;18.896;-99.222;2023-04-06T00:59:50;19.05;;;9.73;;
12412;SDS011;13877;18.896;-99.222;2023-04-06T01:02:19;32.60;;;10.38;;
12412;SDS011;13877;18.896;-99.222;2023-04-06T01:04:49;19.40;;;10.13;;
12412;SDS011;13877;18.896;-99.222;2023-04-06T01:07:24;19.10;;;9.45;;
12412;SDS011;13877;18.896;-99.222;2023-04-06T01:10:05;15.20;;;9.95;;
12412;SDS011;13877;18.896;-99.222;2023-04-06T01:12:34;19.73;;;10.23;;
12412;SDS011;13877;18.896;-99.222;2023-04-06T01:15:07;35.08;;;10.93;;
12412;SDS011;13877;18.896;-99.222;2023-04-06T01:17:39;22.38;;;9.50;;
12412;SDS011;13877;18.896;-99.222;2023-04-06T01:20:11;16.92;;;9.65;;
12412;SDS011;13877;18.896;-99.222;2023-04-06T01:22:39;20.60;;;10.23;;
12412;SDS011;13877;18.896;-99.222;2023-04-06T01:25:06;25.63;;;9.88;;
12412;SDS011;13877;18.896;-99.222;2023-04-06T01:28:12;18.10;;;10.43;;
12412;SDS011;13877;18.896;-99.222;2023-04-06T01:31:06;18.38;;;10.73;;
12412;SDS011;13877;18.896;-99.222;2023-04-06T01:33:48;24.33;;;10.27;;
12412;SDS011;13877;18.896;-99.222;2023-04-06T01:36:18;29.67;;;10.13;;
12412;SDS011;13877;18.896;-99.222;2023-04-06T01:38:52;25.50;;;10.95;;
12412;SDS011;13877;18.896;-99.222;2023-04-06T01:41:26;20.95;;;11.02;;
12412;SDS011;13877;18.896;-99.222;2023-04-06T01:43:54;53.78;;;14.40;;
12412;SDS011;13877;18.896;-99.222;2023-04-06T01:46:25;35.80;;;14.05;;
12412;SDS011;13877;18.896;-99.222;2023-04-06T01:48:53;26.30;;;12.18;;
12412;SDS011;13877;18.896;-99.222;2023-04-06T01:51:30;34.42;;;11.68;;
12412;SDS011;13877;18.896;-99.222;2023-04-06T01:54:00;35.30;;;11.43;;
12412;SDS011;13877;18.896;-99.222;2023-04-06T01:56:53;28.65;;;11.43;;
12412;SDS011;13877;18.896;-99.222;2023-04-06T01:59:33;24.90;;;10.13;;
12412;SDS011;13877;18.896;-99.222;2023-04-06T02:02:05;28.67;;;11.32;;
12412;SDS011;13877;18.896;-99.222;2023-04-06T02:04:34;26.23;;;9.85;;
12412;SDS011;13877;18.896;-99.222;2023-04-06T02:07:09;25.85;;;10.63;;
12412;SDS011;13877;18.896;-99.222;2023-04-06T02:09:36;19.95;;;10.48;;
12412;SDS011;13877;18.896;-99.222;2023-04-06T02:12:06;32.80;;;10.13;;
12412;SDS011;13877;18.896;-99.222;2023-04-06T02:14:33;20.88;;;10.48;;
12412;SDS011;13877;18.896;-99.222;2023-04-06T02:17:00;20.98;;;9.65;;
12412;SDS011;13877;18.896;-99.222;2023-04-06T02:19:27;28.30;;;10.77;;
12412;SDS011;13877;18.896;-99.222;2023-04-06T02:21:54;25.77;;;10.75;;
12412;SDS011;13877;18.896;-99.222;2023-04-06T02:24:22;26.95;;;10.48;;
12412;SDS011;13877;18.896;-99.222;2023-04-06T02:26:49;24.75;;;10.35;;
12412;SDS011;13877;18.896;-99.222;2023-04-06T02:29:16;30.33;;;10.40;;
12412;SDS011;13877;18.896;-99.222;2023-04-06T02:31:43;29.92;;;12.15;;
12412;SDS011;13877;18.896;-99.222;2023-04-06T02:34:10;24.48;;;11.27;;
12412;SDS011;13877;18.896;-99.222;2023-04-06T02:36:47;36.03;;;12.48;;
12412;SDS011;13877;18.896;-99.222;2023-04-06T02:39:14;29.83;;;12.75;;
12412;SDS011;13877;18.896;-99.222;2023-04-06T02:41:41;40.33;;;13.75;;
12412;SDS011;13877;18.896;-99.222;2023-04-06T02:44:10;34.15;;;12.82;;
12412;SDS011;13877;18.896;-99.222;2023-04-06T02:46:40;38.33;;;14.93;;
12412;SDS011;13877;18.896;-99.222;2023-04-06T02:49:07;31.05;;;14.63;;
12412;SDS011;13877;18.896;-99.222;2023-04-06T02:51:35;32.45;;;14.57;;
12412;SDS011;13877;18.896;-99.222;2023-04-06T02:54:28;34.13;;;14.73;;
12412;SDS011;13877;18.896;-99.222;2023-04-06T02:56:55;37.53;;;14.68;;
12412;SDS011;13877;18.896;-99.222;2023-04-06T02:59:30;29.77;;;13.88;;
12412;SDS011;13877;18.896;-99.222;2023-04-06T03:02:07;33.13;;;13.98;;
12412;SDS011;13877;18.896;-99.222;2023-04-06T03:04:35;35.92;;;14.82;;
12412;SDS011;13877;18.896;-99.222;2023-04-06T03:07:05;43.20;;;15.35;;
12412;SDS011;13877;18.896;-99.222;2023-04-06T03:09:39;36.33;;;15.43;;
12412;SDS011;13877;18.896;-99.222;2023-04-06T03:12:06;38.08;;;15.18;;
12412;SDS011;13877;18.896;-99.222;2023-04-06T03:14:43;42.83;;;16.77;;
12412;SDS011;13877;18.896;-99.222;2023-04-06T03:17:11;50.17;;;18.20;;
12412;SDS011;13877;18.896;-99.222;2023-04-06T03:19:38;44.60;;;18.25;;
12412;SDS011;13877;18.896;-99.222;2023-04-06T03:22:06;42.22;;;20.10;;
12412;SDS011;13877;18.896;-99.222;2023-04-06T03:24:32;49.83;;;19.75;;
12412;SDS011;13877;18.896;-99.222;2023-04-06T03:27:01;66.15;;;21.17;;
12412;SDS011;13877;18.896;-99.222;2023-04-06T03:29:28;58.30;;;20.80;;
12412;SDS011;13877;18.896;-99.222;2023-04-06T03:31:55;67.07;;;22.77;;
12412;SDS011;13877;18.896;-99.222;2023-04-06T03:34:32;52.17;;;22.77;;
12412;SDS011;13877;18.896;-99.222;2023-04-06T03:36:59;53.83;;;20.83;;
12412;SDS011;13877;18.896;-99.222;2023-04-06T03:39:27;65.03;;;22.83;;
12412;SDS011;13877;18.896;-99.222;2023-04-06T03:41:55;65.22;;;23.55;;
12412;SDS011;13877;18.896;-99.222;2023-04-06T03:44:32;50.15;;;22.92;;
12412;SDS011;13877;18.896;-99.222;2023-04-06T03:46:59;52.70;;;23.23;;
12412;SDS011;13877;18.896;-99.222;2023-04-06T03:49:28;60.53;;;23.20;;
12412;SDS011;13877;18.896;-99.222;2023-04-06T03:51:56;56.97;;;23.40;;
12412;SDS011;13877;18.896;-99.222;2023-04-06T03:54:23;54.97;;;22.25;;
12412;SDS011;13877;18.896;-99.222;2023-04-06T03:56:50;63.88;;;24.02;;
12412;SDS011;13877;18.896;-99.222;2023-04-06T03:59:17;57.60;;;19.88;;
12412;SDS011;13877;18.896;-99.222;2023-04-06T04:01:44;67.10;;;20.15;;
12412;SDS011;13877;18.896;-99.222;2023-04-06T04:04:12;55.88;;;19.95;;
12412;SDS011;13877;18.896;-99.222;2023-04-06T04:06:40;55.88;;;19.48;;
12412;SDS011;13877;18.896;-99.222;2023-04-06T04:09:07;52.28;;;19.45;;
12412;SDS011;13877;18.896;-99.222;2023-04-06T04:11:35;44.05;;;19.42;;
12412;SDS011;13877;18.896;-99.222;2023-04-06T04:14:01;48.38;;;17.92;;
12412;SDS011;13877;18.896;-99.222;2023-04-06T04:16:29;48.60;;;18.50;;
12412;SDS011;13877;18.896;-99.222;2023-04-06T04:18:56;43.83;;;18.25;;
12412;SDS011;13877;18.896;-99.222;2023-04-06T04:21:28;35.05;;;16.98;;
12412;SDS011;13877;18.896;-99.222;2023-04-06T04:23:56;41.78;;;17.58;;
12412;SDS011;13877;18.896;-99.222;2023-04-06T04:26:23;43.28;;;17.23;;
12412;SDS011;13877;18.896;-99.222;2023-04-06T04:28:50;52.35;;;17.35;;
12412;SDS011;13877;18.896;-99.222;2023-04-06T04:31:17;36.55;;;14.95;;
12412;SDS011;13877;18.896;-99.222;2023-04-06T04:33:50;29.60;;;15.07;;
12412;SDS011;13877;18.896;-99.222;2023-04-06T04:36:24;28.77;;;13.68;;
12412;SDS011;13877;18.896;-99.222;2023-04-06T04:38:54;31.65;;;14.55;;
12412;SDS011;13877;18.896;-99.222;2023-04-06T04:41:22;31.90;;;12.90;;
12412;SDS011;13877;18.896;-99.222;2023-04-06T04:43:50;32.65;;;12.52;;
12412;SDS011;13877;18.896;-99.222;2023-04-06T04:46:21;24.17;;;13.02;;
12412;SDS011;13877;18.896;-99.222;2023-04-06T04:48:48;25.60;;;11.80;;
12412;SDS011;13877;18.896;-99.222;2023-04-06T04:51:15;18.55;;;10.95;;
12412;SDS011;13877;18.896;-99.222;2023-04-06T04:54:03;29.33;;;11.02;;
12412;SDS011;13877;18.896;-99.222;2023-04-06T04:56:31;25.60;;;11.98;;
12412;SDS011;13877;18.896;-99.222;2023-04-06T04:59:24;30.05;;;11.88;;
12412;SDS011;13877;18.896;-99.222;2023-04-06T05:01:59;23.13;;;11.18;;
12412;SDS011;13877;18.896;-99.222;2023-04-06T05:04:36;33.15;;;10.98;;
12412;SDS011;13877;18.896;-99.222;2023-04-06T05:07:06;24.73;;;10.93;;
12412;SDS011;13877;18.896;-99.222;2023-04-06T05:09:39;18.80;;;10.90;;
12412;SDS011;13877;18.896;-99.222;2023-04-06T05:12:07;30.50;;;10.75;;
12412;SDS011;13877;18.896;-99.222;2023-04-06T05:14:43;31.48;;;11.43;;
12412;SDS011;13877;18.896;-99.222;2023-04-06T05:17:14;23.70;;;10.85;;
12412;SDS011;13877;18.896;-99.222;2023-04-06T05:19:41;27.23;;;10.57;;
12412;SDS011;13877;18.896;-99.222;2023-04-06T05:22:09;23.23;;;11.88;;
12412;SDS011;13877;18.896;-99.222;2023-04-06T05:24:39;21.10;;;10.30;;
12412;SDS011;13877;18.896;-99.222;2023-04-06T05:27:07;19.83;;;10.70;;
12412;SDS011;13877;18.896;-99.222;2023-04-06T05:29:34;19.88;;;10.75;;
12412;SDS011;13877;18.896;-99.222;2023-04-06T05:32:01;24.58;;;11.27;;
12412;SDS011;13877;18.896;-99.222;2023-04-06T05:34:29;26.45;;;11.80;;
12412;SDS011;13877;18.896;-99.222;2023-04-06T05:37:00;33.13;;;12.00;;
12412;SDS011;13877;18.896;-99.222;2023-04-06T05:39:27;26.15;;;10.75;;
12412;SDS011;13877;18.896;-99.222;2023-04-06T05:41:55;17.98;;;10.73;;
12412;SDS011;13877;18.896;-99.222;2023-04-06T05:44:42;21.65;;;11.18;;
12412;SDS011;13877;18.896;-99.222;2023-04-06T05:47:13;21.67;;;9.53;;
12412;SDS011;13877;18.896;-99.222;2023-04-06T05:49:41;23.65;;;10.98;;
12412;SDS011;13877;18.896;-99.222;2023-04-06T05:52:15;26.02;;;10.35;;
12412;SDS011;13877;18.896;-99.222;2023-04-06T05:54:46;28.90;;;10.68;;
12412;SDS011;13877;18.896;-99.222;2023-04-06T05:57:14;22.23;;;11.25;;
12412;SDS011;13877;18.896;-99.222;2023-04-06T05:59:43;20.02;;;11.88;;
12412;SDS011;13877;18.896;-99.222;2023-04-06T06:02:12;30.25;;;10.88;;
12412;SDS011;13877;18.896;-99.222;2023-04-06T06:04:44;23.27;;;11.15;;
12412;SDS011;13877;18.896;-99.222;2023-04-06T06:07:13;17.95;;;10.75;;
12412;SDS011;13877;18.896;-99.222;2023-04-06T06:09:46;27.02;;;10.68;;
12412;SDS011;13877;18.896;-99.222;2023-04-06T06:12:20;21.80;;;11.18;;
12412;SDS011;13877;18.896;-99.222;2023-04-06T06:14:48;24.10;;;11.07;;
12412;SDS011;13877;18.896;-99.222;2023-04-06T06:17:17;32.67;;;10.40;;
12412;SDS011;13877;18.896;-99.222;2023-04-06T06:19:46;27.55;;;10.88;;
12412;SDS011;13877;18.896;-99.222;2023-04-06T06:22:15;19.48;;;10.10;;
12412;SDS011;13877;18.896;-99.222;2023-04-06T06:24:45;26.63;;;11.10;;
12412;SDS011;13877;18.896;-99.222;2023-04-06T06:27:13;21.05;;;11.38;;
12412;SDS011;13877;18.896;-99.222;2023-04-06T06:29:40;26.25;;;11.68;;
12412;SDS011;13877;18.896;-99.222;2023-04-06T06:32:07;30.23;;;12.57;;
12412;SDS011;13877;18.896;-99.222;2023-04-06T06:34:38;26.67;;;12.50;;
12412;SDS011;13877;18.896;-99.222;2023-04-06T06:37:07;34.22;;;12.85;;
12412;SDS011;13877;18.896;-99.222;2023-04-06T06:39:36;22.00;;;11.43;;
12412;SDS011;13877;18.896;-99.222;2023-04-06T06:42:04;25.45;;;12.55;;
12412;SDS011;13877;18.896;-99.222;2023-04-06T06:44:45;30.80;;;11.70;;
12412;SDS011;13877;18.896;-99.222;2023-04-06T06:47:13;27.48;;;11.70;;
12412;SDS011;13877;18.896;-99.222;2023-04-06T06:49:39;22.55;;;11.10;;
12412;SDS011;13877;18.896;-99.222;2023-04-06T06:52:07;33.95;;;11.88;;
12412;SDS011;13877;18.896;-99.222;2023-04-06T06:54:34;19.48;;;11.15;;
12412;SDS011;13877;18.896;-99.222;2023-04-06T06:57:01;25.48;;;10.85;;
12412;SDS011;13877;18.896;-99.222;2023-04-06T06:59:28;26.33;;;11.23;;
12412;SDS011;13877;18.896;-99.222;2023-04-06T07:01:55;27.77;;;11.27;;
12412;SDS011;13877;18.896;-99.222;2023-04-06T07:04:22;29.65;;;10.20;;
12412;SDS011;13877;18.896;-99.222;2023-04-06T07:06:49;26.48;;;11.27;;
12412;SDS011;13877;18.896;-99.222;2023-04-06T07:09:18;24.85;;;11.13;;
12412;SDS011;13877;18.896;-99.222;2023-04-06T07:11:45;20.52;;;10.75;;
12412;SDS011;13877;18.896;-99.222;2023-04-06T07:14:12;18.90;;;11.75;;
12412;SDS011;13877;18.896;-99.222;2023-04-06T07:16:41;23.75;;;11.48;;
12412;SDS011;13877;18.896;-99.222;2023-04-06T07:19:10;24.73;;;11.13;;
12412;SDS011;13877;18.896;-99.222;2023-04-06T07:21:38;30.27;;;12.82;;
12412;SDS011;13877;18.896;-99.222;2023-04-06T07:24:05;29.30;;;12.77;;
12412;SDS011;13877;18.896;-99.222;2023-04-06T07:26:32;34.00;;;14.52;;
12412;SDS011;13877;18.896;-99.222;2023-04-06T07:28:59;36.03;;;14.07;;
12412;SDS011;13877;18.896;-99.222;2023-04-06T07:31:26;25.90;;;13.30;;
12412;SDS011;13877;18.896;-99.222;2023-04-06T07:33:53;32.30;;;13.25;;
12412;SDS011;13877;18.896;-99.222;2023-04-06T07:36:21;29.58;;;13.65;;
12412;SDS011;13877;18.896;-99.222;2023-04-06T07:38:48;22.50;;;11.98;;
12412;SDS011;13877;18.896;-99.222;2023-04-06T07:41:16;28.17;;;13.02;;
12412;SDS011;13877;18.896;-99.222;2023-04-06T07:43:43;28.98;;;12.50;;
12412;SDS011;13877;18.896;-99.222;2023-04-06T07:46:11;31.75;;;12.88;;
12412;SDS011;13877;18.896;-99.222;2023-04-06T07:48:38;33.63;;;12.90;;
12412;SDS011;13877;18.896;-99.222;2023-04-06T07:51:06;31.95;;;13.32;;
12412;SDS011;13877;18.896;-99.222;2023-04-06T07:53:38;23.52;;;12.13;;
12412;SDS011;13877;18.896;-99.222;2023-04-06T07:56:05;29.88;;;12.75;;
12412;SDS011;13877;18.896;-99.222;2023-04-06T07:58:32;26.58;;;12.82;;
12412;SDS011;13877;18.896;-99.222;2023-04-06T08:01:00;29.88;;;12.73;;
12412;SDS011;13877;18.896;-99.222;2023-04-06T08:03:28;32.10;;;13.10;;
12412;SDS011;13877;18.896;-99.222;2023-04-06T08:05:55;30.33;;;12.20;;
12412;SDS011;13877;18.896;-99.222;2023-04-06T08:08:21;25.83;;;13.30;;
12412;SDS011;13877;18.896;-99.222;2023-04-06T08:10:48;26.63;;;12.90;;
12412;SDS011;13877;18.896;-99.222;2023-04-06T08:13:15;28.67;;;11.73;;
12412;SDS011;13877;18.896;-99.222;2023-04-06T08:15:43;29.63;;;13.05;;
12412;SDS011;13877;18.896;-99.222;2023-04-06T08:18:10;29.30;;;12.07;;
12412;SDS011;13877;18.896;-99.222;2023-04-06T08:20:37;20.77;;;11.52;;
12412;SDS011;13877;18.896;-99.222;2023-04-06T08:23:04;25.00;;;12.10;;
12412;SDS011;13877;18.896;-99.222;2023-04-06T08:25:35;24.00;;;12.00;;
12412;SDS011;13877;18.896;-99.222;2023-04-06T08:28:03;21.60;;;10.50;;
12412;SDS011;13877;18.896;-99.222;2023-04-06T08:30:30;25.05;;;11.38;;
12412;SDS011;13877;18.896;-99.222;2023-04-06T08:32:57;24.17;;;11.32;;
12412;SDS011;13877;18.896;-99.222;2023-04-06T08:35:25;24.50;;;11.18;;
12412;SDS011;13877;18.896;-99.222;2023-04-06T08:37:53;22.08;;;11.68;;
12412;SDS011;13877;18.896;-99.222;2023-04-06T08:40:20;27.35;;;10.63;;
12412;SDS011;13877;18.896;-99.222;2023-04-06T08:42:50;27.50;;;11.23;;
12412;SDS011;13877;18.896;-99.222;2023-04-06T08:45:28;19.08;;;11.57;;
12412;SDS011;13877;18.896;-99.222;2023-04-06T08:47:55;22.55;;;10.88;;
12412;SDS011;13877;18.896;-99.222;2023-04-06T08:50:28;21.13;;;11.88;;
12412;SDS011;13877;18.896;-99.222;2023-04-06T08:52:56;16.27;;;10.23;;
12412;SDS011;13877;18.896;-99.222;2023-04-06T08:55:23;20.80;;;10.68;;
12412;SDS011;13877;18.896;-99.222;2023-04-06T08:57:51;21.85;;;10.95;;
12412;SDS011;13877;18.896;-99.222;2023-04-06T09:00:20;17.55;;;10.68;;
12412;SDS011;13877;18.896;-99.222;2023-04-06T09:02:49;24.63;;;10.63;;
12412;SDS011;13877;18.896;-99.222;2023-04-06T09:07:46;27.63;;;11.57;;
12412;SDS011;13877;18.896;-99.222;2023-04-06T09:10:13;32.65;;;12.32;;
12412;SDS011;13877;18.896;-99.222;2023-04-06T09:12:42;26.42;;;10.52;;
12412;SDS011;13877;18.896;-99.222;2023-04-06T09:15:20;19.67;;;10.85;;
12412;SDS011;13877;18.896;-99.222;2023-04-06T09:17:48;19.23;;;10.55;;
12412;SDS011;13877;18.896;-99.222;2023-04-06T09:20:15;19.85;;;11.18;;
12412;SDS011;13877;18.896;-99.222;2023-04-06T09:22:51;19.33;;;10.88;;
12412;SDS011;13877;18.896;-99.222;2023-04-06T09:25:19;29.30;;;11.75;;
12412;SDS011;13877;18.896;-99.222;2023-04-06T09:27:49;24.60;;;12.35;;
12412;SDS011;13877;18.896;-99.222;2023-04-06T09:30:26;25.65;;;11.55;;
12412;SDS011;13877;18.896;-99.222;2023-04-06T09:32:54;23.77;;;11.48;;
12412;SDS011;13877;18.896;-99.222;2023-04-06T09:35:22;23.75;;;12.15;;
12412;SDS011;13877;18.896;-99.222;2023-04-06T09:37:52;24.15;;;12.45;;
12412;SDS011;13877;18.896;-99.222;2023-04-06T09:40:20;30.17;;;12.43;;
12412;SDS011;13877;18.896;-99.222;2023-04-06T09:42:48;27.08;;;12.85;;
12412;SDS011;13877;18.896;-99.222;2023-04-06T09:45:20;25.38;;;11.30;;
12412;SDS011;13877;18.896;-99.222;2023-04-06T09:47:47;32.10;;;13.95;;
12412;SDS011;13877;18.896;-99.222;2023-04-06T09:50:15;31.05;;;12.32;;
12412;SDS011;13877;18.896;-99.222;2023-04-06T09:52:48;23.10;;;12.82;;
12412;SDS011;13877;18.896;-99.222;2023-04-06T09:55:23;24.67;;;11.70;;
12412;SDS011;13877;18.896;-99.222;2023-04-06T09:57:58;22.08;;;12.57;;
12412;SDS011;13877;18.896;-99.222;2023-04-06T10:00:47;26.00;;;12.95;;
12412;SDS011;13877;18.896;-99.222;2023-04-06T10:06:11;25.83;;;13.75;;
12412;SDS011;13877;18.896;-99.222;2023-04-06T10:08:41;19.10;;;11.63;;
12412;SDS011;13877;18.896;-99.222;2023-04-06T10:11:10;30.85;;;12.13;;
12412;SDS011;13877;18.896;-99.222;2023-04-06T10:13:37;30.88;;;12.75;;
12412;SDS011;13877;18.896;-99.222;2023-04-06T10:16:04;36.15;;;12.65;;
12412;SDS011;13877;18.896;-99.222;2023-04-06T10:18:33;28.75;;;13.10;;
12412;SDS011;13877;18.896;-99.222;2023-04-06T10:21:06;23.17;;;12.05;;
12412;SDS011;13877;18.896;-99.222;2023-04-06T10:26:21;26.40;;;12.18;;
12412;SDS011;13877;18.896;-99.222;2023-04-06T10:28:49;26.88;;;13.07;;
12412;SDS011;13877;18.896;-99.222;2023-04-06T10:31:25;23.88;;;11.00;;
12412;SDS011;13877;18.896;-99.222;2023-04-06T10:33:57;27.08;;;11.80;;
12412;SDS011;13877;18.896;-99.222;2023-04-06T10:36:26;21.52;;;11.68;;
12412;SDS011;13877;18.896;-99.222;2023-04-06T10:38:59;30.42;;;11.52;;
12412;SDS011;13877;18.896;-99.222;2023-04-06T10:41:34;26.58;;;11.13;;
12412;SDS011;13877;18.896;-99.222;2023-04-06T10:44:06;23.00;;;11.40;;
12412;SDS011;13877;18.896;-99.222;2023-04-06T10:46:33;21.80;;;10.63;;
12412;SDS011;13877;18.896;-99.222;2023-04-06T10:49:10;25.25;;;11.52;;
12412;SDS011;13877;18.896;-99.222;2023-04-06T10:51:38;25.92;;;11.30;;
12412;SDS011;13877;18.896;-99.222;2023-04-06T10:54:06;35.20;;;11.35;;
12412;SDS011;13877;18.896;-99.222;2023-04-06T10:56:36;30.25;;;11.20;;
12412;SDS011;13877;18.896;-99.222;2023-04-06T10:59:05;23.20;;;11.68;;
12412;SDS011;13877;18.896;-99.222;2023-04-06T11:01:33;28.23;;;12.43;;
12412;SDS011;13877;18.896;-99.222;2023-04-06T11:04:00;21.00;;;11.07;;
12412;SDS011;13877;18.896;-99.222;2023-04-06T11:06:28;22.83;;;11.65;;
12412;SDS011;13877;18.896;-99.222;2023-04-06T11:08:59;20.13;;;11.73;;
12412;SDS011;13877;18.896;-99.222;2023-04-06T11:11:26;21.58;;;11.35;;
12412;SDS011;13877;18.896;-99.222;2023-04-06T11:16:23;21.98;;;12.00;;
12412;SDS011;13877;18.896;-99.222;2023-04-06T11:18:51;20.90;;;11.38;;
12412;SDS011;13877;18.896;-99.222;2023-04-06T11:21:35;28.42;;;11.98;;
12412;SDS011;13877;18.896;-99.222;2023-04-06T11:24:11;27.73;;;11.18;;
12412;SDS011;13877;18.896;-99.222;2023-04-06T11:29:20;20.90;;;11.13;;
12412;SDS011;13877;18.896;-99.222;2023-04-06T11:31:50;24.35;;;11.48;;
12412;SDS011;13877;18.896;-99.222;2023-04-06T11:34:19;22.20;;;11.45;;
12412;SDS011;13877;18.896;-99.222;2023-04-06T11:39:24;21.25;;;11.35;;
12412;SDS011;13877;18.896;-99.222;2023-04-06T11:41:53;18.40;;;11.35;;
12412;SDS011;13877;18.896;-99.222;2023-04-06T11:44:34;28.85;;;11.38;;
12412;SDS011;13877;18.896;-99.222;2023-04-06T11:47:04;30.23;;;12.00;;
12412;SDS011;13877;18.896;-99.222;2023-04-06T11:49:39;30.38;;;11.10;;
12412;SDS011;13877;18.896;-99.222;2023-04-06T11:52:17;21.90;;;11.38;;
12412;SDS011;13877;18.896;-99.222;2023-04-06T11:54:47;32.45;;;12.65;;
12412;SDS011;13877;18.896;-99.222;2023-04-06T11:57:15;25.05;;;11.60;;
12412;SDS011;13877;18.896;-99.222;2023-04-06T11:59:43;24.38;;;12.85;;
12412;SDS011;13877;18.896;-99.222;2023-04-06T12:02:11;23.20;;;12.80;;
12412;SDS011;13877;18.896;-99.222;2023-04-06T12:04:38;27.52;;;12.35;;
12412;SDS011;13877;18.896;-99.222;2023-04-06T12:07:05;24.40;;;12.25;;
12412;SDS011;13877;18.896;-99.222;2023-04-06T12:09:32;27.65;;;13.07;;
12412;SDS011;13877;18.896;-99.222;2023-04-06T12:12:01;29.30;;;13.52;;
12412;SDS011;13877;18.896;-99.222;2023-04-06T12:14:29;23.65;;;12.30;;
12412;SDS011;13877;18.896;-99.222;2023-04-06T12:16:57;23.10;;;12.40;;
12412;SDS011;13877;18.896;-99.222;2023-04-06T12:19:24;28.02;;;13.35;;
12412;SDS011;13877;18.896;-99.222;2023-04-06T12:21:52;26.67;;;13.10;;
12412;SDS011;13877;18.896;-99.222;2023-04-06T12:24:20;27.88;;;13.00;;
12412;SDS011;13877;18.896;-99.222;2023-04-06T12:26:47;28.50;;;13.90;;
12412;SDS011;13877;18.896;-99.222;2023-04-06T12:29:14;24.25;;;13.35;;
12412;SDS011;13877;18.896;-99.222;2023-04-06T12:31:41;25.15;;;13.15;;
12412;SDS011;13877;18.896;-99.222;2023-04-06T12:34:10;30.73;;;13.52;;
12412;SDS011;13877;18.896;-99.222;2023-04-06T12:36:37;29.25;;;12.65;;
12412;SDS011;13877;18.896;-99.222;2023-04-06T12:39:05;33.25;;;13.77;;
12412;SDS011;13877;18.896;-99.222;2023-04-06T12:41:32;25.58;;;13.32;;
12412;SDS011;13877;18.896;-99.222;2023-04-06T12:43:59;21.85;;;12.32;;
12412;SDS011;13877;18.896;-99.222;2023-04-06T12:46:29;24.23;;;11.95;;
12412;SDS011;13877;18.896;-99.222;2023-04-06T12:48:56;22.30;;;11.77;;
12412;SDS011;13877;18.896;-99.222;2023-04-06T12:51:27;29.10;;;12.85;;
12412;SDS011;13877;18.896;-99.222;2023-04-06T12:53:54;23.73;;;11.93;;
12412;SDS011;13877;18.896;-99.222;2023-04-06T12:56:21;25.88;;;12.38;;
12412;SDS011;13877;18.896;-99.222;2023-04-06T12:58:50;26.95;;;12.25;;
12412;SDS011;13877;18.896;-99.222;2023-04-06T13:01:17;28.25;;;12.10;;
12412;SDS011;13877;18.896;-99.222;2023-04-06T13:03:45;20.23;;;12.65;;
12412;SDS011;13877;18.896;-99.222;2023-04-06T13:06:12;34.20;;;12.77;;
12412;SDS011;13877;18.896;-99.222;2023-04-06T13:08:40;28.85;;;12.73;;
12412;SDS011;13877;18.896;-99.222;2023-04-06T13:11:07;30.25;;;12.90;;
12412;SDS011;13877;18.896;-99.222;2023-04-06T13:13:36;47.15;;;14.10;;
12412;SDS011;13877;18.896;-99.222;2023-04-06T13:16:07;26.58;;;11.90;;
12412;SDS011;13877;18.896;-99.222;2023-04-06T13:18:35;27.30;;;13.98;;
12412;SDS011;13877;18.896;-99.222;2023-04-06T13:21:07;25.02;;;12.32;;
12412;SDS011;13877;18.896;-99.222;2023-04-06T13:23:34;38.25;;;14.15;;
12412;SDS011;13877;18.896;-99.222;2023-04-06T13:26:02;34.47;;;15.52;;
12412;SDS011;13877;18.896;-99.222;2023-04-06T13:28:31;36.08;;;14.48;;
12412;SDS011;13877;18.896;-99.222;2023-04-06T13:31:00;30.75;;;16.35;;
12412;SDS011;13877;18.896;-99.222;2023-04-06T13:33:28;29.75;;;15.93;;
12412;SDS011;13877;18.896;-99.222;2023-04-06T13:35:56;35.92;;;14.50;;
12412;SDS011;13877;18.896;-99.222;2023-04-06T13:38:24;37.75;;;14.90;;
12412;SDS011;13877;18.896;-99.222;2023-04-06T13:40:51;28.85;;;15.40;;
12412;SDS011;13877;18.896;-99.222;2023-04-06T13:43:19;39.20;;;13.65;;
12412;SDS011;13877;18.896;-99.222;2023-04-06T13:45:50;34.92;;;14.05;;
12412;SDS011;13877;18.896;-99.222;2023-04-06T13:48:18;35.22;;;13.98;;
12412;SDS011;13877;18.896;-99.222;2023-04-06T13:50:45;29.05;;;14.93;;
12412;SDS011;13877;18.896;-99.222;2023-04-06T13:53:12;39.95;;;15.02;;
12412;SDS011;13877;18.896;-99.222;2023-04-06T13:55:40;28.83;;;14.30;;
12412;SDS011;13877;18.896;-99.222;2023-04-06T13:58:07;23.40;;;13.50;;
12412;SDS011;13877;18.896;-99.222;2023-04-06T14:00:34;30.48;;;14.25;;
12412;SDS011;13877;18.896;-99.222;2023-04-06T14:03:01;51.35;;;15.57;;
12412;SDS011;13877;18.896;-99.222;2023-04-06T14:05:32;26.55;;;12.80;;
12412;SDS011;13877;18.896;-99.222;2023-04-06T14:10:26;32.20;;;13.93;;
12412;SDS011;13877;18.896;-99.222;2023-04-06T14:12:53;33.17;;;14.77;;
12412;SDS011;13877;18.896;-99.222;2023-04-06T14:15:21;32.42;;;14.25;;
12412;SDS011;13877;18.896;-99.222;2023-04-06T14:17:48;35.00;;;14.25;;
12412;SDS011;13877;18.896;-99.222;2023-04-06T14:20:16;33.30;;;13.13;;
12412;SDS011;13877;18.896;-99.222;2023-04-06T14:22:43;27.02;;;13.18;;
12412;SDS011;13877;18.896;-99.222;2023-04-06T14:25:10;25.67;;;12.95;;
12412;SDS011;13877;18.896;-99.222;2023-04-06T14:27:38;30.88;;;14.70;;
12412;SDS011;13877;18.896;-99.222;2023-04-06T14:30:05;28.83;;;14.35;;